createdAt,value
2019-02-21T00:00:24.036Z,20.96
2019-02-21T00:00:56.588Z,20.98
2019-02-21T00:01:28.581Z,20.93
2019-02-21T00:02:00.589Z,21
2019-02-21T00:02:32.563Z,21.11
2019-02-21T00:03:04.527Z,21.04
2019-02-21T00:03:36.586Z,21.04
2019-02-21T00:04:08.600Z,20.98
2019-02-21T00:04:40.600Z,20.91
2019-02-21T00:05:12.808Z,20.96
2019-02-21T00:05:45.045Z,21.01
2019-02-21T00:06:17.121Z,20.98
2019-02-21T00:06:49.342Z,20.96
2019-02-21T00:07:21.471Z,20.91
2019-02-21T00:07:53.538Z,20.98
2019-02-21T00:08:25.612Z,21.01
2019-02-21T00:08:57.646Z,20.9
2019-02-21T00:09:29.709Z,21
2019-02-21T00:10:01.827Z,20.88
2019-02-21T00:10:33.847Z,20.96
2019-02-21T00:11:05.838Z,20.94
2019-02-21T00:11:37.909Z,20.94
2019-02-21T00:12:10.022Z,20.94
2019-02-21T00:12:42.017Z,21.04
2019-02-21T00:13:14.043Z,20.97
2019-02-21T00:13:46.041Z,20.93
2019-02-21T00:14:18.098Z,21
2019-02-21T00:14:50.144Z,20.96
2019-02-21T00:15:22.132Z,20.97
2019-02-21T00:15:54.177Z,20.94
2019-02-21T00:16:26.222Z,20.94
2019-02-21T00:16:58.240Z,20.97
2019-02-21T00:17:30.268Z,20.96
2019-02-21T00:18:02.303Z,20.97
2019-02-21T00:18:34.344Z,20.98
2019-02-21T00:19:06.373Z,21.01
2019-02-21T00:19:38.409Z,21.01
2019-02-21T00:20:10.417Z,21.03
2019-02-21T00:20:42.415Z,20.96
2019-02-21T00:21:14.433Z,21.01
2019-02-21T00:21:46.479Z,21.01
2019-02-21T00:22:18.476Z,20.93
2019-02-21T00:22:50.478Z,20.93
2019-02-21T00:23:22.455Z,20.98
2019-02-21T00:23:54.481Z,21.01
2019-02-21T00:24:26.504Z,21.01
2019-02-21T00:24:58.558Z,20.96
2019-02-21T00:25:30.796Z,20.93
2019-02-21T00:26:02.793Z,20.98
2019-02-21T00:26:34.779Z,21
2019-02-21T00:27:06.791Z,20.97
2019-02-21T00:27:38.795Z,20.98
2019-02-21T00:28:10.822Z,20.96
2019-02-21T00:28:42.842Z,21.03
2019-02-21T00:29:14.879Z,20.94
2019-02-21T00:29:46.922Z,20.96
2019-02-21T00:30:18.900Z,20.94
2019-02-21T00:30:50.939Z,20.98
2019-02-21T00:31:22.932Z,20.91
2019-02-21T00:31:54.946Z,21.01
2019-02-21T00:32:27.030Z,21.01
2019-02-21T00:32:59.170Z,21.01
2019-02-21T00:33:31.180Z,20.98
2019-02-21T00:34:03.199Z,21.03
2019-02-21T00:34:35.167Z,20.97
2019-02-21T00:35:07.231Z,20.96
2019-02-21T00:35:39.249Z,20.94
2019-02-21T00:36:11.274Z,20.96
2019-02-21T00:36:43.384Z,20.96
2019-02-21T00:37:15.435Z,20.96
2019-02-21T00:37:48.408Z,20.93
2019-02-21T00:38:20.399Z,21
2019-02-21T00:38:52.367Z,21.06
2019-02-21T00:39:24.325Z,21.03
2019-02-21T00:39:56.354Z,21.01
2019-02-21T00:40:28.341Z,20.98
2019-02-21T00:41:01.111Z,20.98
2019-02-21T00:41:33.160Z,20.98
2019-02-21T00:42:05.137Z,20.98
2019-02-21T00:42:37.161Z,20.91
2019-02-21T00:43:09.129Z,20.93
2019-02-21T00:43:41.185Z,21.01
2019-02-21T00:44:13.202Z,20.96
2019-02-21T00:44:45.217Z,21
2019-02-21T00:45:17.220Z,21.01
2019-02-21T00:45:49.225Z,20.98
2019-02-21T00:46:21.239Z,20.98
2019-02-21T00:46:53.452Z,20.98
2019-02-21T00:47:25.453Z,20.93
2019-02-21T00:47:57.519Z,21.01
2019-02-21T00:48:29.505Z,20.88
2019-02-21T00:49:01.524Z,20.98
2019-02-21T00:49:33.536Z,20.98
2019-02-21T00:50:05.517Z,20.97
2019-02-21T00:50:37.491Z,20.98
2019-02-21T00:51:09.455Z,20.91
2019-02-21T00:51:41.453Z,20.98
2019-02-21T00:52:13.430Z,21.03
2019-02-21T00:52:45.421Z,20.98
2019-02-21T00:53:17.386Z,21.01
2019-02-21T00:53:49.420Z,20.96
2019-02-21T00:54:21.386Z,21.03
2019-02-21T00:54:53.369Z,20.97
2019-02-21T00:55:27.753Z,20.96
2019-02-21T00:55:59.993Z,20.98
2019-02-21T00:56:31.970Z,20.94
2019-02-21T00:57:03.961Z,20.93
2019-02-21T00:57:35.986Z,21.01
2019-02-21T00:58:07.976Z,21.01
2019-02-21T00:58:39.965Z,20.98
2019-02-21T00:59:11.943Z,20.98
2019-02-21T00:59:43.930Z,21.01
2019-02-21T01:00:15.908Z,20.94
2019-02-21T01:00:47.976Z,20.97
2019-02-21T01:01:20.828Z,21.03
2019-02-21T01:01:53.082Z,20.98
2019-02-21T01:02:25.218Z,21
2019-02-21T01:02:57.203Z,21
2019-02-21T01:03:29.185Z,20.97
2019-02-21T01:04:01.161Z,20.97
2019-02-21T01:04:33.136Z,20.88
2019-02-21T01:05:05.114Z,20.93
2019-02-21T01:05:37.090Z,20.97
2019-02-21T01:06:09.064Z,20.93
2019-02-21T01:06:41.060Z,20.97
2019-02-21T01:07:13.032Z,20.97
2019-02-21T01:07:45.009Z,21.06
2019-02-21T01:08:17.000Z,21.01
2019-02-21T01:08:48.972Z,20.97
2019-02-21T01:09:21.055Z,20.97
2019-02-21T01:09:53.040Z,20.93
2019-02-21T01:10:25.045Z,20.98
2019-02-21T01:10:57.046Z,20.94
2019-02-21T01:11:29.022Z,20.97
2019-02-21T01:12:01.009Z,20.98
2019-02-21T01:12:33.000Z,21.01
2019-02-21T01:13:04.997Z,20.9
2019-02-21T01:13:36.966Z,20.97
2019-02-21T01:14:09.036Z,20.9
2019-02-21T01:14:41.053Z,20.98
2019-02-21T01:15:13.054Z,20.94
2019-02-21T01:15:45.047Z,20.96
2019-02-21T01:16:17.146Z,20.98
2019-02-21T01:16:49.122Z,20.98
2019-02-21T01:17:21.136Z,20.97
2019-02-21T01:17:53.122Z,21.01
2019-02-21T01:18:25.098Z,21.03
2019-02-21T01:18:57.067Z,21.01
2019-02-21T01:19:29.072Z,20.91
2019-02-21T01:20:01.066Z,20.9
2019-02-21T01:20:33.084Z,20.86
2019-02-21T01:21:05.054Z,21.01
2019-02-21T01:21:37.046Z,20.98
2019-02-21T01:22:09.050Z,20.97
2019-02-21T01:22:41.058Z,20.91
2019-02-21T01:23:13.038Z,20.98
2019-02-21T01:23:45.076Z,20.97
2019-02-21T01:24:17.077Z,20.97
2019-02-21T01:24:49.097Z,21
2019-02-21T01:25:21.084Z,21.01
2019-02-21T01:25:53.082Z,20.97
2019-02-21T01:26:25.057Z,20.98
2019-02-21T01:26:57.059Z,20.9
2019-02-21T01:27:29.103Z,20.97
2019-02-21T01:28:01.108Z,20.97
2019-02-21T01:28:33.129Z,20.98
2019-02-21T01:29:05.159Z,20.97
2019-02-21T01:29:37.153Z,20.97
2019-02-21T01:30:09.145Z,20.94
2019-02-21T01:30:41.276Z,20.91
2019-02-21T01:31:13.274Z,20.91
2019-02-21T01:31:45.265Z,21.01
2019-02-21T01:32:17.245Z,20.96
2019-02-21T01:32:49.236Z,20.97
2019-02-21T01:33:21.214Z,21.01
2019-02-21T01:33:53.203Z,20.98
2019-02-21T01:34:25.177Z,20.88
2019-02-21T01:34:57.158Z,20.96
2019-02-21T01:35:29.147Z,20.91
2019-02-21T01:36:01.141Z,20.85
2019-02-21T01:36:33.130Z,20.97
2019-02-21T01:37:05.139Z,20.98
2019-02-21T01:37:37.101Z,20.9
2019-02-21T01:38:09.060Z,21.01
2019-02-21T01:38:41.044Z,20.91
2019-02-21T01:39:13.220Z,20.97
2019-02-21T01:39:45.174Z,20.97
2019-02-21T01:40:17.219Z,20.93
2019-02-21T01:40:49.213Z,21.03
2019-02-21T01:41:21.200Z,20.97
2019-02-21T01:41:53.161Z,20.88
2019-02-21T01:42:25.197Z,20.96
2019-02-21T01:42:57.167Z,20.98
2019-02-21T01:43:29.151Z,21
2019-02-21T01:44:01.202Z,21.01
2019-02-21T01:44:35.828Z,20.83
2019-02-21T01:45:07.828Z,20.85
2019-02-21T01:45:39.827Z,21.03
2019-02-21T01:46:11.809Z,20.96
2019-02-21T01:46:43.830Z,20.91
2019-02-21T01:47:15.818Z,21.01
2019-02-21T01:47:47.809Z,21
2019-02-21T01:48:19.772Z,20.86
2019-02-21T01:48:51.743Z,21.01
2019-02-21T01:49:23.752Z,20.96
2019-02-21T01:49:55.723Z,20.88
2019-02-21T01:50:27.720Z,20.9
2019-02-21T01:51:02.419Z,20.91
2019-02-21T01:51:34.405Z,20.94
2019-02-21T01:52:06.383Z,21.01
2019-02-21T01:52:38.344Z,20.97
2019-02-21T01:53:10.402Z,21
2019-02-21T01:53:42.372Z,20.93
2019-02-21T01:54:14.446Z,20.86
2019-02-21T01:54:46.440Z,20.88
2019-02-21T01:55:18.432Z,20.91
2019-02-21T01:55:50.544Z,20.91
2019-02-21T01:56:22.538Z,20.88
2019-02-21T01:56:54.556Z,21.04
2019-02-21T01:57:26.541Z,20.91
2019-02-21T01:57:58.526Z,20.9
2019-02-21T01:58:30.507Z,20.86
2019-02-21T01:59:02.537Z,20.88
2019-02-21T01:59:35.038Z,21
2019-02-21T02:00:07.018Z,20.96
2019-02-21T02:00:39.259Z,20.91
2019-02-21T02:01:11.249Z,20.91
2019-02-21T02:01:43.265Z,20.91
2019-02-21T02:02:15.264Z,20.85
2019-02-21T02:02:47.242Z,20.88
2019-02-21T02:03:19.246Z,20.9
2019-02-21T02:03:51.228Z,20.97
2019-02-21T02:04:23.244Z,20.93
2019-02-21T02:04:55.243Z,20.9
2019-02-21T02:05:27.227Z,20.85
2019-02-21T02:05:59.222Z,20.9
2019-02-21T02:06:31.200Z,20.9
2019-02-21T02:07:03.177Z,20.97
2019-02-21T02:07:35.165Z,20.88
2019-02-21T02:08:07.145Z,20.9
2019-02-21T02:08:39.116Z,20.9
2019-02-21T02:09:11.124Z,20.85
2019-02-21T02:09:43.208Z,20.94
2019-02-21T02:10:15.206Z,20.91
2019-02-21T02:10:47.177Z,20.9
2019-02-21T02:11:19.243Z,20.91
2019-02-21T02:11:51.309Z,20.9
2019-02-21T02:12:23.293Z,20.93
2019-02-21T02:12:55.437Z,20.91
2019-02-21T02:13:27.427Z,20.9
2019-02-21T02:13:59.412Z,20.97
2019-02-21T02:14:31.389Z,20.96
2019-02-21T02:15:03.377Z,20.9
2019-02-21T02:15:35.385Z,20.83
2019-02-21T02:16:07.357Z,20.83
2019-02-21T02:16:39.385Z,20.91
2019-02-21T02:17:11.639Z,21
2019-02-21T02:17:43.660Z,20.85
2019-02-21T02:18:15.652Z,20.83
2019-02-21T02:18:47.701Z,20.93
2019-02-21T02:19:19.673Z,20.93
2019-02-21T02:19:51.642Z,20.97
2019-02-21T02:20:23.624Z,20.97
2019-02-21T02:20:55.712Z,20.91
2019-02-21T02:21:27.828Z,20.97
2019-02-21T02:21:59.904Z,20.9
2019-02-21T02:22:31.884Z,20.93
2019-02-21T02:23:03.884Z,20.93
2019-02-21T02:23:35.962Z,20.91
2019-02-21T02:24:08.156Z,20.91
2019-02-21T02:24:40.346Z,20.96
2019-02-21T02:25:12.328Z,20.9
2019-02-21T02:25:44.319Z,20.91
2019-02-21T02:26:16.297Z,20.91
2019-02-21T02:26:48.276Z,20.9
2019-02-21T02:27:20.245Z,20.93
2019-02-21T02:27:52.246Z,20.86
2019-02-21T02:28:24.259Z,20.96
2019-02-21T02:28:56.240Z,20.9
2019-02-21T02:29:28.221Z,20.9
2019-02-21T02:30:00.382Z,20.93
2019-02-21T02:30:32.480Z,20.93
2019-02-21T02:31:04.476Z,20.91
2019-02-21T02:31:36.493Z,20.88
2019-02-21T02:32:09.720Z,20.93
2019-02-21T02:32:42.063Z,20.96
2019-02-21T02:33:14.086Z,20.93
2019-02-21T02:33:46.070Z,20.82
2019-02-21T02:34:18.068Z,20.85
2019-02-21T02:34:50.084Z,20.9
2019-02-21T02:35:22.074Z,20.83
2019-02-21T02:35:54.078Z,20.9
2019-02-21T02:36:26.094Z,20.93
2019-02-21T02:36:58.106Z,20.9
2019-02-21T02:37:30.107Z,20.88
2019-02-21T02:38:02.148Z,20.86
2019-02-21T02:38:34.145Z,20.91
2019-02-21T02:39:06.132Z,20.88
2019-02-21T02:39:38.114Z,20.86
2019-02-21T02:40:10.084Z,20.83
2019-02-21T02:40:42.123Z,20.81
2019-02-21T02:41:14.112Z,20.81
2019-02-21T02:41:46.128Z,20.94
2019-02-21T02:42:18.132Z,20.86
2019-02-21T02:42:50.966Z,20.93
2019-02-21T02:43:22.966Z,20.83
2019-02-21T02:43:54.986Z,20.79
2019-02-21T02:44:27.036Z,20.82
2019-02-21T02:44:59.013Z,20.94
2019-02-21T02:45:31.298Z,20.82
2019-02-21T02:46:03.279Z,20.83
2019-02-21T02:46:35.509Z,20.83
2019-02-21T02:47:07.520Z,20.88
2019-02-21T02:47:39.496Z,20.82
2019-02-21T02:48:11.506Z,20.88
2019-02-21T02:48:43.505Z,20.9
2019-02-21T02:49:15.575Z,20.81
2019-02-21T02:49:47.581Z,20.85
2019-02-21T02:50:19.623Z,20.86
2019-02-21T02:50:51.629Z,20.88
2019-02-21T02:51:23.611Z,20.82
2019-02-21T02:51:55.635Z,20.85
2019-02-21T02:52:27.715Z,20.81
2019-02-21T02:52:59.685Z,20.82
2019-02-21T02:53:31.751Z,20.81
2019-02-21T02:54:03.733Z,20.79
2019-02-21T02:54:35.961Z,20.93
2019-02-21T02:55:07.958Z,20.82
2019-02-21T02:55:39.943Z,20.82
2019-02-21T02:56:11.927Z,20.91
2019-02-21T02:56:43.943Z,20.83
2019-02-21T02:57:15.933Z,20.82
2019-02-21T02:57:47.924Z,20.76
2019-02-21T02:58:19.920Z,20.81
2019-02-21T02:58:51.982Z,20.82
2019-02-21T02:59:23.971Z,20.81
2019-02-21T02:59:56.094Z,20.86
2019-02-21T03:00:28.165Z,20.85
2019-02-21T03:01:00.164Z,20.81
2019-02-21T03:01:34.951Z,20.88
2019-02-21T03:02:07.953Z,20.81
2019-02-21T03:02:39.913Z,20.86
2019-02-21T03:03:11.896Z,20.79
2019-02-21T03:03:43.878Z,20.86
2019-02-21T03:04:15.994Z,20.81
2019-02-21T03:04:48.265Z,20.82
2019-02-21T03:05:20.538Z,20.83
2019-02-21T03:05:52.517Z,20.86
2019-02-21T03:06:24.624Z,20.79
2019-02-21T03:06:56.639Z,20.79
2019-02-21T03:07:28.621Z,20.83
2019-02-21T03:08:00.597Z,20.82
2019-02-21T03:08:32.591Z,20.81
2019-02-21T03:09:04.588Z,20.86
2019-02-21T03:09:36.550Z,20.78
2019-02-21T03:10:08.552Z,20.85
2019-02-21T03:10:40.529Z,20.82
2019-02-21T03:11:12.526Z,20.79
2019-02-21T03:11:44.514Z,20.88
2019-02-21T03:12:16.526Z,20.79
2019-02-21T03:12:48.553Z,20.83
2019-02-21T03:13:20.520Z,20.86
2019-02-21T03:13:52.506Z,20.85
2019-02-21T03:14:24.493Z,20.88
2019-02-21T03:14:56.492Z,20.86
2019-02-21T03:15:28.706Z,20.85
2019-02-21T03:16:00.841Z,20.79
2019-02-21T03:16:32.912Z,20.79
2019-02-21T03:17:04.896Z,20.74
2019-02-21T03:17:36.914Z,20.83
2019-02-21T03:18:08.937Z,20.76
2019-02-21T03:18:40.919Z,20.88
2019-02-21T03:19:12.925Z,20.88
2019-02-21T03:19:44.954Z,20.79
2019-02-21T03:20:16.940Z,20.79
2019-02-21T03:20:48.943Z,20.79
2019-02-21T03:21:20.952Z,20.79
2019-02-21T03:21:52.943Z,20.78
2019-02-21T03:22:24.921Z,20.85
2019-02-21T03:22:56.907Z,20.83
2019-02-21T03:23:28.901Z,20.78
2019-02-21T03:24:00.901Z,20.85
2019-02-21T03:24:32.900Z,20.76
2019-02-21T03:25:04.909Z,20.76
2019-02-21T03:25:37.018Z,20.82
2019-02-21T03:26:09.118Z,20.76
2019-02-21T03:26:41.149Z,20.75
2019-02-21T03:27:13.146Z,20.81
2019-02-21T03:27:45.244Z,20.82
2019-02-21T03:28:17.223Z,20.75
2019-02-21T03:28:49.220Z,20.75
2019-02-21T03:29:21.210Z,20.81
2019-02-21T03:29:53.186Z,20.81
2019-02-21T03:30:25.150Z,20.86
2019-02-21T03:30:57.181Z,20.91
2019-02-21T03:31:29.235Z,20.81
2019-02-21T03:32:01.287Z,20.82
2019-02-21T03:32:33.336Z,20.78
2019-02-21T03:33:05.416Z,20.79
2019-02-21T03:33:38.153Z,20.75
2019-02-21T03:34:10.363Z,20.74
2019-02-21T03:34:42.437Z,20.82
2019-02-21T03:35:14.472Z,20.78
2019-02-21T03:35:46.493Z,20.78
2019-02-21T03:36:18.539Z,20.78
2019-02-21T03:36:50.726Z,20.78
2019-02-21T03:37:22.749Z,20.78
2019-02-21T03:37:55.953Z,20.79
2019-02-21T03:38:28.041Z,20.82
2019-02-21T03:39:05.261Z,20.78
2019-02-21T03:39:37.511Z,20.78
2019-02-21T03:40:09.576Z,20.76
2019-02-21T03:40:41.616Z,20.76
2019-02-21T03:41:13.876Z,20.79
2019-02-21T03:41:45.897Z,20.71
2019-02-21T03:42:17.929Z,20.76
2019-02-21T03:42:50.090Z,20.78
2019-02-21T03:43:22.096Z,20.78
2019-02-21T03:43:54.071Z,20.72
2019-02-21T03:44:26.156Z,20.78
2019-02-21T03:44:58.196Z,20.68
2019-02-21T03:45:30.178Z,20.67
2019-02-21T03:46:02.176Z,20.79
2019-02-21T03:46:34.178Z,20.83
2019-02-21T03:47:06.172Z,20.78
2019-02-21T03:47:38.163Z,20.83
2019-02-21T03:48:10.162Z,20.76
2019-02-21T03:48:42.130Z,20.67
2019-02-21T03:49:14.385Z,20.81
2019-02-21T03:49:46.367Z,20.79
2019-02-21T03:50:18.346Z,20.72
2019-02-21T03:50:50.327Z,20.71
2019-02-21T03:51:22.354Z,20.68
2019-02-21T03:51:54.385Z,20.76
2019-02-21T03:52:26.413Z,20.79
2019-02-21T03:52:58.413Z,20.71
2019-02-21T03:53:30.396Z,20.78
2019-02-21T03:54:02.379Z,20.76
2019-02-21T03:54:34.377Z,20.81
2019-02-21T03:55:06.562Z,20.68
2019-02-21T03:55:38.858Z,20.71
2019-02-21T03:56:11.099Z,20.76
2019-02-21T03:56:43.105Z,20.74
2019-02-21T03:57:15.100Z,20.67
2019-02-21T03:57:47.100Z,20.74
2019-02-21T03:58:19.086Z,20.74
2019-02-21T03:58:51.073Z,20.67
2019-02-21T03:59:23.067Z,20.67
2019-02-21T03:59:55.111Z,20.68
2019-02-21T04:00:27.126Z,20.71
2019-02-21T04:00:59.121Z,20.76
2019-02-21T04:01:31.183Z,20.71
2019-02-21T04:02:05.528Z,20.74
2019-02-21T04:02:37.790Z,20.72
2019-02-21T04:03:09.801Z,20.76
2019-02-21T04:03:41.837Z,20.75
2019-02-21T04:04:13.860Z,20.76
2019-02-21T04:04:45.892Z,20.74
2019-02-21T04:05:17.868Z,20.68
2019-02-21T04:05:49.862Z,20.72
2019-02-21T04:06:21.860Z,20.68
2019-02-21T04:06:53.849Z,20.74
2019-02-21T04:07:25.853Z,20.76
2019-02-21T04:07:57.834Z,20.76
2019-02-21T04:08:29.969Z,20.76
2019-02-21T04:09:01.976Z,20.64
2019-02-21T04:09:33.962Z,20.71
2019-02-21T04:10:06.845Z,20.72
2019-02-21T04:10:39.244Z,20.72
2019-02-21T04:11:11.246Z,20.75
2019-02-21T04:11:43.242Z,20.68
2019-02-21T04:12:15.231Z,20.67
2019-02-21T04:12:47.523Z,20.71
2019-02-21T04:13:19.505Z,20.72
2019-02-21T04:13:51.494Z,20.75
2019-02-21T04:14:23.498Z,20.68
2019-02-21T04:14:55.481Z,20.68
2019-02-21T04:15:27.494Z,20.75
2019-02-21T04:15:59.498Z,20.67
2019-02-21T04:16:31.502Z,20.68
2019-02-21T04:17:03.720Z,20.66
2019-02-21T04:17:35.716Z,20.68
2019-02-21T04:18:07.733Z,20.67
2019-02-21T04:18:39.727Z,20.76
2019-02-21T04:19:11.702Z,20.68
2019-02-21T04:19:43.685Z,20.72
2019-02-21T04:20:15.685Z,20.68
2019-02-21T04:20:47.681Z,20.75
2019-02-21T04:21:19.738Z,20.71
2019-02-21T04:21:51.753Z,20.66
2019-02-21T04:22:23.757Z,20.75
2019-02-21T04:22:55.762Z,20.67
2019-02-21T04:23:27.736Z,20.68
2019-02-21T04:23:59.819Z,20.71
2019-02-21T04:24:31.829Z,20.71
2019-02-21T04:25:03.890Z,20.71
2019-02-21T04:25:35.868Z,20.64
2019-02-21T04:26:07.845Z,20.64
2019-02-21T04:26:39.912Z,20.75
2019-02-21T04:27:11.895Z,20.75
2019-02-21T04:27:43.905Z,20.71
2019-02-21T04:28:15.881Z,20.71
2019-02-21T04:28:47.849Z,20.71
2019-02-21T04:29:19.879Z,20.68
2019-02-21T04:29:51.870Z,20.68
2019-02-21T04:30:23.866Z,20.67
2019-02-21T04:30:55.854Z,20.72
2019-02-21T04:31:28.079Z,20.71
2019-02-21T04:32:00.064Z,20.72
2019-02-21T04:32:32.053Z,20.63
2019-02-21T04:33:04.066Z,20.66
2019-02-21T04:33:36.059Z,20.68
2019-02-21T04:34:08.054Z,20.66
2019-02-21T04:34:40.131Z,20.75
2019-02-21T04:35:12.214Z,20.67
2019-02-21T04:35:44.258Z,20.67
2019-02-21T04:36:16.248Z,20.67
2019-02-21T04:36:48.229Z,20.63
2019-02-21T04:37:20.224Z,20.68
2019-02-21T04:37:52.206Z,20.68
2019-02-21T04:38:24.185Z,20.66
2019-02-21T04:38:56.299Z,20.63
2019-02-21T04:39:28.260Z,20.64
2019-02-21T04:40:00.340Z,20.68
2019-02-21T04:40:32.378Z,20.68
2019-02-21T04:41:04.377Z,20.6
2019-02-21T04:41:36.358Z,20.71
2019-02-21T04:42:08.340Z,20.72
2019-02-21T04:42:40.374Z,20.67
2019-02-21T04:43:12.371Z,20.67
2019-02-21T04:43:44.363Z,20.67
2019-02-21T04:44:16.418Z,20.72
2019-02-21T04:44:48.468Z,20.67
2019-02-21T04:45:20.493Z,20.66
2019-02-21T04:45:52.521Z,20.64
2019-02-21T04:46:24.524Z,20.74
2019-02-21T04:46:56.618Z,20.67
2019-02-21T04:47:28.640Z,20.71
2019-02-21T04:48:01.505Z,20.74
2019-02-21T04:48:33.593Z,20.74
2019-02-21T04:49:05.739Z,20.71
2019-02-21T04:49:37.809Z,20.66
2019-02-21T04:50:09.806Z,20.68
2019-02-21T04:50:41.812Z,20.66
2019-02-21T04:51:13.804Z,20.68
2019-02-21T04:51:45.843Z,20.74
2019-02-21T04:52:17.840Z,20.68
2019-02-21T04:52:49.829Z,20.68
2019-02-21T04:53:21.813Z,20.68
2019-02-21T04:53:53.859Z,20.67
2019-02-21T04:54:25.900Z,20.61
2019-02-21T04:54:57.924Z,20.71
2019-02-21T04:55:29.901Z,20.64
2019-02-21T04:56:01.951Z,20.66
2019-02-21T04:56:34.006Z,20.67
2019-02-21T04:57:05.993Z,20.67
2019-02-21T04:57:37.971Z,20.64
2019-02-21T04:58:10.078Z,20.68
2019-02-21T04:58:42.065Z,20.61
2019-02-21T04:59:14.066Z,20.64
2019-02-21T04:59:46.059Z,20.68
2019-02-21T05:00:18.043Z,20.67
2019-02-21T05:00:50.317Z,20.68
2019-02-21T05:01:22.468Z,20.64
2019-02-21T05:01:54.553Z,20.68
2019-02-21T05:02:29.393Z,20.67
2019-02-21T05:03:01.633Z,20.66
2019-02-21T05:03:33.625Z,20.68
2019-02-21T05:04:05.595Z,20.63
2019-02-21T05:04:37.592Z,20.67
2019-02-21T05:05:09.585Z,20.68
2019-02-21T05:05:41.709Z,20.63
2019-02-21T05:06:13.698Z,20.68
2019-02-21T05:06:45.695Z,20.71
2019-02-21T05:07:17.821Z,20.66
2019-02-21T05:07:49.816Z,20.71
2019-02-21T05:08:21.784Z,20.67
2019-02-21T05:08:53.761Z,20.61
2019-02-21T05:09:27.076Z,20.67
2019-02-21T05:09:59.507Z,20.71
2019-02-21T05:10:31.601Z,20.6
2019-02-21T05:11:03.615Z,20.67
2019-02-21T05:11:35.919Z,20.72
2019-02-21T05:12:07.901Z,20.71
2019-02-21T05:12:39.884Z,20.71
2019-02-21T05:13:11.887Z,20.71
2019-02-21T05:13:43.861Z,20.66
2019-02-21T05:14:15.864Z,20.72
2019-02-21T05:14:47.863Z,20.72
2019-02-21T05:15:19.852Z,20.68
2019-02-21T05:15:51.856Z,20.64
2019-02-21T05:16:23.847Z,20.66
2019-02-21T05:16:55.838Z,20.63
2019-02-21T05:17:27.839Z,20.68
2019-02-21T05:17:59.840Z,20.67
2019-02-21T05:18:31.845Z,20.68
2019-02-21T05:19:03.886Z,20.6
2019-02-21T05:19:36.136Z,20.72
2019-02-21T05:20:08.133Z,20.71
2019-02-21T05:20:40.133Z,20.68
2019-02-21T05:21:12.106Z,20.63
2019-02-21T05:21:44.211Z,20.63
2019-02-21T05:22:16.396Z,20.68
2019-02-21T05:22:48.403Z,20.66
2019-02-21T05:23:20.414Z,20.71
2019-02-21T05:23:52.428Z,20.71
2019-02-21T05:24:24.476Z,20.68
2019-02-21T05:24:56.512Z,20.58
2019-02-21T05:25:28.516Z,20.74
2019-02-21T05:26:00.543Z,20.64
2019-02-21T05:26:32.534Z,20.71
2019-02-21T05:27:04.509Z,20.68
2019-02-21T05:27:36.505Z,20.71
2019-02-21T05:28:08.483Z,20.63
2019-02-21T05:28:41.314Z,20.68
2019-02-21T05:29:13.435Z,20.75
2019-02-21T05:29:45.433Z,20.6
2019-02-21T05:30:17.426Z,20.66
2019-02-21T05:30:49.466Z,20.75
2019-02-21T05:31:21.432Z,20.66
2019-02-21T05:31:53.439Z,20.71
2019-02-21T05:32:25.485Z,20.68
2019-02-21T05:32:57.480Z,20.66
2019-02-21T05:33:29.460Z,20.63
2019-02-21T05:34:01.517Z,20.66
2019-02-21T05:34:33.563Z,20.67
2019-02-21T05:35:05.556Z,20.64
2019-02-21T05:35:37.534Z,20.71
2019-02-21T05:36:09.540Z,20.66
2019-02-21T05:36:41.536Z,20.66
2019-02-21T05:37:13.583Z,20.64
2019-02-21T05:37:45.694Z,20.66
2019-02-21T05:38:17.695Z,20.66
2019-02-21T05:38:49.693Z,20.66
2019-02-21T05:39:21.692Z,20.67
2019-02-21T05:39:53.698Z,20.67
2019-02-21T05:40:28.250Z,20.66
2019-02-21T05:41:00.655Z,20.64
2019-02-21T05:41:35.916Z,20.63
2019-02-21T05:42:07.927Z,20.63
2019-02-21T05:42:40.492Z,20.71
2019-02-21T05:43:12.525Z,20.72
2019-02-21T05:43:44.510Z,20.71
2019-02-21T05:44:16.494Z,20.6
2019-02-21T05:44:48.508Z,20.67
2019-02-21T05:45:20.501Z,20.66
2019-02-21T05:45:52.494Z,20.66
2019-02-21T05:46:24.609Z,20.63
2019-02-21T05:46:56.641Z,20.72
2019-02-21T05:47:28.645Z,20.64
2019-02-21T05:48:01.270Z,20.64
2019-02-21T05:48:33.396Z,20.67
2019-02-21T05:49:05.384Z,20.66
2019-02-21T05:49:37.382Z,20.64
2019-02-21T05:50:09.370Z,20.64
2019-02-21T05:50:41.397Z,20.64
2019-02-21T05:51:13.423Z,20.67
2019-02-21T05:51:45.424Z,20.61
2019-02-21T05:52:17.403Z,20.64
2019-02-21T05:52:49.398Z,20.66
2019-02-21T05:53:21.374Z,20.61
2019-02-21T05:53:53.379Z,20.6
2019-02-21T05:54:25.362Z,20.64
2019-02-21T05:54:57.379Z,20.64
2019-02-21T05:55:29.381Z,20.68
2019-02-21T05:56:01.355Z,20.6
2019-02-21T05:56:33.368Z,20.61
2019-02-21T05:57:05.941Z,20.64
2019-02-21T05:57:37.897Z,20.63
2019-02-21T05:58:12.570Z,20.61
2019-02-21T05:58:44.680Z,20.61
2019-02-21T05:59:16.740Z,20.67
2019-02-21T05:59:48.741Z,20.6
2019-02-21T06:00:20.806Z,20.61
2019-02-21T06:00:52.837Z,20.63
2019-02-21T06:01:24.891Z,20.66
2019-02-21T06:01:56.888Z,20.61
2019-02-21T06:02:28.896Z,20.64
2019-02-21T06:03:00.919Z,20.68
2019-02-21T06:03:35.693Z,20.6
2019-02-21T06:04:07.915Z,20.66
2019-02-21T06:04:39.925Z,20.67
2019-02-21T06:05:11.913Z,20.6
2019-02-21T06:05:43.921Z,20.6
2019-02-21T06:06:17.251Z,20.6
2019-02-21T06:06:49.382Z,20.63
2019-02-21T06:07:21.357Z,20.61
2019-02-21T06:07:53.412Z,20.6
2019-02-21T06:08:25.458Z,20.6
2019-02-21T06:08:57.454Z,20.61
2019-02-21T06:09:29.440Z,20.63
2019-02-21T06:10:01.428Z,20.64
2019-02-21T06:10:33.421Z,20.61
2019-02-21T06:11:05.423Z,20.6
2019-02-21T06:11:37.413Z,20.6
2019-02-21T06:12:09.425Z,20.61
2019-02-21T06:12:41.417Z,20.57
2019-02-21T06:13:13.394Z,20.6
2019-02-21T06:13:45.371Z,20.61
2019-02-21T06:14:17.347Z,20.66
2019-02-21T06:14:49.368Z,20.58
2019-02-21T06:15:21.346Z,20.63
2019-02-21T06:15:53.420Z,20.58
2019-02-21T06:16:25.399Z,20.56
2019-02-21T06:16:57.425Z,20.63
2019-02-21T06:17:29.442Z,20.6
2019-02-21T06:18:01.414Z,20.61
2019-02-21T06:18:33.430Z,20.58
2019-02-21T06:19:05.414Z,20.58
2019-02-21T06:19:37.408Z,20.6
2019-02-21T06:20:09.392Z,20.61
2019-02-21T06:20:41.380Z,20.58
2019-02-21T06:21:13.439Z,20.58
2019-02-21T06:21:45.411Z,20.57
2019-02-21T06:22:17.395Z,20.54
2019-02-21T06:22:49.431Z,20.58
2019-02-21T06:23:21.407Z,20.57
2019-02-21T06:23:56.151Z,20.57
2019-02-21T06:24:28.131Z,20.56
2019-02-21T06:25:00.317Z,20.57
2019-02-21T06:25:32.455Z,20.56
2019-02-21T06:26:04.489Z,20.57
2019-02-21T06:26:36.495Z,20.56
2019-02-21T06:27:12.217Z,20.56
2019-02-21T06:27:44.425Z,20.51
2019-02-21T06:28:16.396Z,20.57
2019-02-21T06:28:48.374Z,20.57
2019-02-21T06:29:22.408Z,20.57
2019-02-21T06:29:54.701Z,20.6
2019-02-21T06:30:26.682Z,20.58
2019-02-21T06:30:58.685Z,20.57
2019-02-21T06:31:31.257Z,20.56
2019-02-21T06:32:13.761Z,20.56
2019-02-21T06:32:46.368Z,20.6
2019-02-21T06:33:18.489Z,20.54
2019-02-21T06:33:51.585Z,20.58
2019-02-21T06:34:24.488Z,20.53
2019-02-21T06:34:59.034Z,20.6
2019-02-21T06:35:34.183Z,20.58
2019-02-21T06:36:07.759Z,20.57
2019-02-21T06:36:39.949Z,20.56
2019-02-21T06:37:12.752Z,20.61
2019-02-21T06:37:45.059Z,20.56
2019-02-21T06:38:17.211Z,20.6
2019-02-21T06:38:49.394Z,20.6
2019-02-21T06:39:21.460Z,20.53
2019-02-21T06:39:56.199Z,20.56
2019-02-21T06:40:28.181Z,20.63
2019-02-21T06:41:00.305Z,20.54
2019-02-21T06:41:32.324Z,20.58
2019-02-21T06:42:04.308Z,20.58
2019-02-21T06:42:36.295Z,20.51
2019-02-21T06:43:08.282Z,20.57
2019-02-21T06:43:40.300Z,20.53
2019-02-21T06:44:12.293Z,20.58
2019-02-21T06:44:44.306Z,20.58
2019-02-21T06:45:18.089Z,20.56
2019-02-21T06:45:50.304Z,20.6
2019-02-21T06:46:22.316Z,20.6
2019-02-21T06:46:54.322Z,20.58
2019-02-21T06:47:26.324Z,20.57
2019-02-21T06:47:58.308Z,20.57
2019-02-21T06:48:30.308Z,20.6
2019-02-21T06:49:05.957Z,20.57
2019-02-21T06:49:38.008Z,20.61
2019-02-21T06:50:09.990Z,20.6
2019-02-21T06:50:42.026Z,20.57
2019-02-21T06:51:14.010Z,20.61
2019-02-21T06:51:45.997Z,20.6
2019-02-21T06:52:17.989Z,20.58
2019-02-21T06:52:49.970Z,20.6
2019-02-21T06:53:21.939Z,20.56
2019-02-21T06:53:53.992Z,20.6
2019-02-21T06:54:25.990Z,20.66
2019-02-21T06:54:57.992Z,20.63
2019-02-21T06:55:33.148Z,20.63